Time;durP1;ratioP1;P1;durP2;ratioP2;P2;SDS_P1;SDS_P2;PMS_P1;PMS_P2;Temp;Humidity;BMP_temperature;BMP_pressure;BME280_temperature;BME280_humidity;BME280_pressure;Samples;Min_cycle;Max_cycle;Signal;HPM_P1;HPM_P2
2023/02/06 00:02:10;;;;;;;25.42;3.67;;;;;;;4.90;100.00;104064.94;5054605;28;20101;-69
2023/02/06 00:04:35;;;;;;;31.30;4.00;;;;;;;4.89;100.00;104070.03;5052770;28;20028;-69
2023/02/06 00:07:00;;;;;;;30.73;3.85;;;;;;;4.87;100.00;104067.28;5048989;28;20612;-69
2023/02/06 00:09:26;;;;;;;23.85;3.13;;;;;;;4.87;100.00;104071.56;5051921;28;20464;-68
2023/02/06 00:11:51;;;;;;;34.10;3.70;;;;;;;4.88;100.00;104068.19;5051595;28;20436;-68
2023/02/06 00:14:16;;;;;;;32.58;4.50;;;;;;;4.88;100.00;104065.56;5052989;28;20070;-68
2023/02/06 00:16:42;;;;;;;24.48;3.00;;;;;;;4.84;100.00;104064.41;5055976;28;20024;-69
2023/02/06 00:19:07;;;;;;;29.08;3.38;;;;;;;4.85;100.00;104057.47;5055138;28;20070;-69
2023/02/06 00:21:32;;;;;;;28.17;3.40;;;;;;;4.84;100.00;104063.44;5041414;28;20048;-69
2023/02/06 00:23:59;;;;;;;28.17;3.58;;;;;;;4.84;100.00;104063.44;5051759;28;20727;-70
2023/02/06 00:26:25;;;;;;;31.55;4.25;;;;;;;4.83;100.00;104066.84;5050548;28;20440;-69
2023/02/06 00:28:51;;;;;;;27.80;3.15;;;;;;;4.84;100.00;104058.25;5058154;28;20035;-69
2023/02/06 00:31:16;;;;;;;25.63;2.42;;;;;;;4.82;100.00;104054.59;5050898;28;20109;-69
2023/02/06 00:33:42;;;;;;;22.15;2.70;;;;;;;4.82;100.00;104055.50;5051514;28;20033;-70
2023/02/06 00:36:08;;;;;;;17.83;3.10;;;;;;;4.82;100.00;104055.50;5046346;28;20025;-68
2023/02/06 00:38:34;;;;;;;21.40;3.72;;;;;;;4.84;100.00;104053.00;5045438;28;20492;-68
2023/02/06 00:41:00;;;;;;;18.23;2.70;;;;;;;4.82;100.00;104049.38;5048657;28;20036;-69
2023/02/06 00:43:25;;;;;;;23.23;3.63;;;;;;;4.80;100.00;104050.91;5063222;28;20036;-68
2023/02/06 00:45:52;;;;;;;26.52;3.22;;;;;;;4.78;100.00;104047.25;5060225;28;20168;-68
2023/02/06 00:48:17;;;;;;;35.35;3.75;;;;;;;4.75;100.00;104053.09;5056733;28;20392;-69
2023/02/06 00:50:43;;;;;;;30.33;3.65;;;;;;;4.75;100.00;104057.38;5055744;28;20027;-69
2023/02/06 00:53:08;;;;;;;32.67;3.88;;;;;;;4.73;100.00;104055.56;5051154;28;20461;-69
2023/02/06 00:55:34;;;;;;;31.88;3.25;;;;;;;4.74;100.00;104053.88;5057034;28;20059;-68
2023/02/06 00:57:59;;;;;;;20.08;3.00;;;;;;;4.73;100.00;104050.34;5059740;28;20108;-68
2023/02/06 01:00:24;;;;;;;21.85;3.25;;;;;;;4.74;100.00;104053.88;5045322;28;20064;-69
2023/02/06 01:02:50;;;;;;;25.08;5.35;;;;;;;4.74;100.00;104059.09;5047047;28;20098;-69
2023/02/06 01:05:15;;;;;;;22.30;2.78;;;;;;;4.75;100.00;104042.66;5039018;28;20033;-69
2023/02/06 01:07:40;;;;;;;20.45;3.58;;;;;;;4.73;100.00;104045.13;5046985;28;20037;-70
2023/02/06 01:10:08;;;;;;;20.98;3.90;;;;;;;4.73;100.00;104037.31;5050720;28;20032;-69
2023/02/06 01:12:35;;;;;;;20.58;2.85;;;;;;;4.71;100.00;104040.56;5055601;28;20477;-68
2023/02/06 01:15:01;;;;;;;22.83;2.72;;;;;;;4.72;100.00;104042.34;5036395;28;20099;-68
2023/02/06 01:17:27;;;;;;;26.75;3.55;;;;;;;4.72;100.00;104053.72;5052285;28;20056;-68
2023/02/06 01:19:52;;;;;;;23.25;3.03;;;;;;;4.72;100.00;104058.94;5048592;28;20036;-68
2023/02/06 01:22:17;;;;;;;31.10;2.88;;;;;;;4.72;100.00;104053.72;5056674;28;20078;-68
2023/02/06 01:24:43;;;;;;;30.35;3.15;;;;;;;4.71;100.00;104057.09;5051789;28;20064;-69
2023/02/06 01:27:08;;;;;;;31.92;2.97;;;;;;;4.74;100.00;104046.03;5050750;28;20025;-71
2023/02/06 01:29:33;;;;;;;27.83;3.60;;;;;;;4.75;100.00;104053.09;5051221;28;20652;-70
2023/02/06 01:31:59;;;;;;;24.00;4.03;;;;;;;4.76;100.00;104054.00;5048668;28;20029;-69
2023/02/06 01:34:24;;;;;;;18.83;3.03;;;;;;;4.76;100.00;104048.78;5052907;28;20395;-67
2023/02/06 01:36:49;;;;;;;30.58;2.80;;;;;;;4.76;100.00;104043.56;5050841;28;20039;-70
2023/02/06 01:39:15;;;;;;;17.30;2.75;;;;;;;4.77;100.00;104055.84;5050787;28;20108;-69
2023/02/06 01:41:40;;;;;;;30.52;2.97;;;;;;;4.75;100.00;104057.38;5050460;28;20025;-69
2023/02/06 01:44:09;;;;;;;22.85;3.28;;;;;;;4.75;100.00;104058.31;5049064;28;20036;-68
2023/02/06 01:46:36;;;;;;;32.20;3.83;;;;;;;4.76;100.00;104046.19;5048636;28;20013;-68
2023/02/06 01:49:02;;;;;;;16.50;2.85;;;;;;;4.72;100.00;104044.97;5054260;28;20060;-69
2023/02/06 01:51:29;;;;;;;26.85;3.30;;;;;;;4.70;100.00;104044.84;5033951;28;20096;-69
2023/02/06 01:53:59;;;;;;;19.52;2.40;;;;;;;4.68;100.00;104041.19;5051403;28;20431;-69
2023/02/06 01:56:26;;;;;;;26.75;2.60;;;;;;;4.66;100.00;104039.19;5044699;28;20045;-69
2023/02/06 01:58:55;;;;;;;30.08;4.13;;;;;;;4.63;100.00;104039.84;5048625;28;20280;-70
2023/02/06 02:01:21;;;;;;;19.13;2.85;;;;;;;4.59;100.00;104048.16;5059854;28;20048;-69
2023/02/06 02:03:50;;;;;;;20.63;2.78;;;;;;;4.54;100.00;104049.41;5065136;28;20048;-70
2023/02/06 02:06:19;;;;;;;28.30;2.83;;;;;;;4.53;100.00;104047.56;5046310;28;20017;-70
2023/02/06 02:08:47;;;;;;;24.02;2.90;;;;;;;4.53;100.00;104047.56;5049018;28;20041;-68
2023/02/06 02:11:19;;;;;;;25.42;4.38;;;;;;;4.51;100.00;104043.91;5048853;28;20024;-69
2023/02/06 02:13:45;;;;;;;23.45;2.75;;;;;;;4.48;100.00;104047.16;5050069;28;20028;-69
2023/02/06 02:16:44;;;;;;;29.40;3.28;;;;;;;4.49;100.00;104037.63;5051191;28;20473;-67
2023/02/06 02:19:18;;;;;;;13.65;2.70;;;;;;;4.48;100.00;104035.81;5052941;28;20033;-69
2023/02/06 02:22:04;;;;;;;18.20;3.30;;;;;;;4.44;100.00;104031.09;5054338;28;20063;-70
2023/02/06 02:24:51;;;;;;;23.90;3.47;;;;;;;4.38;100.00;104024.53;5043339;28;20033;-70
2023/02/06 02:27:25;;;;;;;19.30;2.55;;;;;;;4.37;100.00;104012.25;5035391;28;20544;-69
2023/02/06 02:30:09;;;;;;;16.08;3.58;;;;;;;4.36;100.00;104010.41;5045474;28;20029;-70
2023/02/06 02:32:40;;;;;;;27.20;2.92;;;;;;;4.35;100.00;104015.50;5056693;28;20477;-69
2023/02/06 02:35:31;;;;;;;16.55;2.63;;;;;;;4.35;100.00;104006.00;5058481;28;20469;-68
2023/02/06 02:38:14;;;;;;;16.95;2.58;;;;;;;4.29;100.00;104007.13;5033403;28;20064;-69
2023/02/06 02:40:54;;;;;;;23.10;2.95;;;;;;;4.29;100.00;103999.28;5053328;28;20037;-69
2023/02/06 02:43:42;;;;;;;16.52;2.30;;;;;;;4.26;100.00;103997.31;5051945;28;20029;-69
2023/02/06 02:46:25;;;;;;;30.88;3.25;;;;;;;4.23;100.00;104002.22;5052704;28;20035;-69
2023/02/06 02:48:55;;;;;;;33.70;2.80;;;;;;;4.27;100.00;104009.56;5059479;28;20071;-69
2023/02/06 02:51:22;;;;;;;22.00;2.78;;;;;;;4.30;100.00;104009.84;5051875;28;20473;-69
2023/02/06 02:53:47;;;;;;;26.65;2.42;;;;;;;4.26;100.00;104007.75;5055551;28;20477;-69
2023/02/06 02:56:23;;;;;;;18.98;2.83;;;;;;;4.21;100.00;104002.06;5062849;28;20055;-70
2023/02/06 02:58:53;;;;;;;22.85;2.97;;;;;;;4.18;100.00;104003.50;5051310;28;20029;-69
2023/02/06 03:01:24;;;;;;;27.88;3.15;;;;;;;4.15;100.00;104003.19;5052655;28;20060;-68
2023/02/06 03:03:55;;;;;;;18.80;2.92;;;;;;;4.14;100.00;104001.38;5052112;28;20119;-70
2023/02/06 03:06:42;;;;;;;32.88;2.72;;;;;;;4.18;100.00;104003.50;5056587;28;20033;-69
2023/02/06 03:09:14;;;;;;;20.55;3.30;;;;;;;4.15;100.00;103998.91;5048331;28;20045;-70
2023/02/06 03:11:45;;;;;;;26.52;2.65;;;;;;;4.19;100.00;104001.03;5050390;28;20029;-69
2023/02/06 03:14:36;;;;;;;30.20;2.83;;;;;;;4.18;100.00;104000.91;5043484;28;20029;-69
2023/02/06 03:17:09;;;;;;;18.85;3.60;;;;;;;4.17;100.00;103999.97;5037627;28;20055;-69
2023/02/06 03:19:42;;;;;;;13.63;2.70;;;;;;;4.13;100.00;104012.56;5041721;28;20033;-69
2023/02/06 03:22:09;;;;;;;18.48;1.83;;;;;;;4.12;100.00;104005.53;5045732;28;20037;-68
2023/02/06 03:24:38;;;;;;;11.80;2.00;;;;;;;4.11;100.00;104006.28;5048550;28;20033;-68
2023/02/06 03:27:09;;;;;;;33.40;3.60;;;;;;;4.10;100.00;104004.47;5052294;28;20116;-68
2023/02/06 03:29:37;;;;;;;22.02;2.55;;;;;;;4.16;100.00;104013.75;5052213;28;20032;-70
2023/02/06 03:32:09;;;;;;;18.13;3.40;;;;;;;4.17;100.00;104013.00;5065723;28;20055;-69
2023/02/06 03:34:41;;;;;;;23.38;3.80;;;;;;;4.15;100.00;104006.72;5044772;28;20021;-69
2023/02/06 03:37:06;;;;;;;28.80;4.70;;;;;;;4.18;100.00;103999.19;5044419;28;20024;-69
2023/02/06 03:39:32;;;;;;;15.60;2.72;;;;;;;4.19;100.00;104008.84;5059101;28;20468;-69
2023/02/06 03:42:00;;;;;;;14.80;2.47;;;;;;;4.19;100.00;104010.53;5055356;28;20534;-71
2023/02/06 03:44:30;;;;;;;25.13;3.85;;;;;;;4.17;100.00;104023.41;5050917;28;20029;-70
2023/02/06 03:46:58;;;;;;;15.18;2.53;;;;;;;4.16;100.00;104011.16;5052833;28;20032;-70
2023/02/06 03:49:27;;;;;;;16.55;2.60;;;;;;;4.18;100.00;104008.72;5057419;28;20376;-69
2023/02/06 03:51:58;;;;;;;21.25;2.78;;;;;;;4.19;100.00;104010.53;5046587;28;20056;-68
2023/02/06 03:54:26;;;;;;;33.22;3.70;;;;;;;4.15;100.00;104014.56;5052583;28;20029;-70
2023/02/06 03:56:58;;;;;;;25.27;3.45;;;;;;;4.13;100.00;104015.19;5052091;28;20036;-69
2023/02/06 03:59:24;;;;;;;22.95;2.97;;;;;;;4.10;100.00;104014.91;5058369;28;20032;-69
2023/02/06 04:01:54;;;;;;;17.80;3.15;;;;;;;4.03;100.00;104013.41;5062409;28;20028;-69
2023/02/06 04:04:27;;;;;;;27.55;2.97;;;;;;;4.02;100.00;104022.88;5049367;28;20115;-68
2023/02/06 04:06:55;;;;;;;21.77;2.70;;;;;;;3.96;100.00;104008.34;5053580;28;20036;-69
2023/02/06 04:09:20;;;;;;;36.90;3.15;;;;;;;3.89;100.00;103999.03;5061996;28;20032;-69
2023/02/06 04:11:46;;;;;;;20.13;2.53;;;;;;;3.83;100.00;104001.97;5048729;28;20040;-69
2023/02/06 04:14:11;;;;;;;21.38;3.20;;;;;;;3.80;100.00;103998.16;5053183;28;20099;-69
2023/02/06 04:16:36;;;;;;;28.65;3.30;;;;;;;3.79;100.00;103996.34;5057062;28;20022;-70
2023/02/06 04:19:02;;;;;;;22.60;2.95;;;;;;;3.77;100.00;103993.59;5051923;28;20029;-69
2023/02/06 04:21:27;;;;;;;25.27;2.88;;;;;;;3.76;100.00;103990.81;5054280;28;20078;-69
2023/02/06 04:23:52;;;;;;;23.95;3.53;;;;;;;3.74;100.00;103993.28;5047136;28;20072;-69
2023/02/06 04:26:18;;;;;;;23.40;2.85;;;;;;;3.70;100.00;104002.53;5048152;28;20012;-69
2023/02/06 04:28:43;;;;;;;21.42;3.50;;;;;;;3.75;100.00;104009.84;5055317;28;20055;-69
2023/02/06 04:31:08;;;;;;;14.98;3.42;;;;;;;3.72;100.00;104019.19;5051897;28;20025;-69
2023/02/06 04:33:34;;;;;;;31.23;3.42;;;;;;;3.69;100.00;104025.78;5050768;28;20033;-68
2023/02/06 04:35:59;;;;;;;16.75;3.28;;;;;;;3.67;100.00;104022.13;5055221;28;20457;-69
2023/02/06 04:38:24;;;;;;;25.50;3.60;;;;;;;3.66;100.00;104021.22;5050504;28;20025;-69
2023/02/06 04:40:50;;;;;;;23.00;3.40;;;;;;;3.68;100.00;104035.28;5043242;28;20048;-69
2023/02/06 04:43:15;;;;;;;21.25;3.67;;;;;;;3.67;100.00;104041.25;5049058;28;20414;-69
2023/02/06 04:45:40;;;;;;;25.88;3.53;;;;;;;3.63;100.00;104036.53;5053766;28;20064;-69
2023/02/06 04:48:06;;;;;;;15.65;3.92;;;;;;;3.62;100.00;104024.31;5050543;28;20036;-69
2023/02/06 04:50:33;;;;;;;31.95;3.22;;;;;;;3.62;100.00;104024.31;5044378;28;20053;-69
2023/02/06 04:52:58;;;;;;;34.10;4.00;;;;;;;3.64;100.00;104017.53;5048767;28;20163;-69
2023/02/06 04:55:24;;;;;;;23.50;3.83;;;;;;;3.63;100.00;104018.31;5055078;28;20434;-68
2023/02/06 04:57:49;;;;;;;21.63;3.75;;;;;;;3.63;100.00;104020.91;5034474;28;20039;-67
2023/02/06 05:00:15;;;;;;;23.13;4.15;;;;;;;3.61;100.00;104012.03;5049176;28;20449;-69
2023/02/06 05:02:40;;;;;;;23.63;3.20;;;;;;;3.61;100.00;104021.53;5051891;28;20460;-68
2023/02/06 05:05:07;;;;;;;28.83;4.88;;;;;;;3.60;100.00;104020.63;5050859;28;20381;-70
2023/02/06 05:07:34;;;;;;;35.72;5.60;;;;;;;3.63;100.00;104020.91;5056969;28;20550;-69
2023/02/06 05:09:59;;;;;;;35.72;5.43;;;;;;;3.59;100.00;104023.97;5051825;28;20083;-68
2023/02/06 05:12:27;;;;;;;25.75;4.72;;;;;;;3.52;100.00;104016.38;5045745;28;20025;-68
2023/02/06 05:14:53;;;;;;;32.03;5.22;;;;;;;3.48;100.00;104019.44;5056102;28;20099;-69
2023/02/06 05:17:18;;;;;;;27.27;5.10;;;;;;;3.45;100.00;104020.06;5050657;28;20116;-69
2023/02/06 05:19:43;;;;;;;30.80;5.00;;;;;;;3.41;100.00;104023.13;5052559;28;20079;-69
2023/02/06 05:22:09;;;;;;;31.98;5.82;;;;;;;3.40;100.00;104005.66;5049413;28;20036;-69
2023/02/06 05:24:34;;;;;;;29.73;6.05;;;;;;;3.38;100.00;104007.22;5049987;28;20029;-68
2023/02/06 05:26:59;;;;;;;27.65;4.40;;;;;;;3.36;100.00;104000.94;5051163;28;20104;-69
2023/02/06 05:29:25;;;;;;;20.23;4.22;;;;;;;3.33;100.00;104001.56;5063349;28;20036;-69
2023/02/06 05:31:51;;;;;;;36.97;4.22;;;;;;;3.33;100.00;104003.25;5045180;28;20029;-69
2023/02/06 05:34:16;;;;;;;18.08;3.45;;;;;;;3.27;100.00;104008.78;5053232;28;20028;-69
2023/02/06 05:36:41;;;;;;;19.67;4.28;;;;;;;3.28;100.00;104000.19;5048737;28;20116;-69
2023/02/06 05:39:07;;;;;;;34.38;4.53;;;;;;;3.25;100.00;104010.31;5042149;28;20036;-69
2023/02/06 05:41:32;;;;;;;30.05;4.75;;;;;;;3.21;100.00;104002.97;5055988;28;20051;-69
2023/02/06 05:43:57;;;;;;;41.47;6.03;;;;;;;3.23;100.00;104016.13;5052221;28;20021;-71
2023/02/06 05:46:23;;;;;;;25.58;5.65;;;;;;;3.24;100.00;104016.25;5058787;28;20034;-70
2023/02/06 05:48:48;;;;;;;27.92;3.92;;;;;;;3.28;100.00;104021.00;5059231;28;20062;-70
2023/02/06 05:51:14;;;;;;;25.73;4.72;;;;;;;3.29;100.00;104012.44;5053474;28;20081;-69
2023/02/06 05:53:39;;;;;;;32.17;4.28;;;;;;;3.35;100.00;104018.25;5054432;28;20033;-69
2023/02/06 05:56:04;;;;;;;28.15;3.40;;;;;;;3.34;100.00;104006.00;5051166;28;20027;-68
2023/02/06 05:58:30;;;;;;;33.45;3.63;;;;;;;3.36;100.00;104004.47;5052017;28;20032;-68
2023/02/06 06:00:55;;;;;;;20.10;3.60;;;;;;;3.40;100.00;103999.56;5050109;28;20055;-69
2023/02/06 06:03:21;;;;;;;32.58;3.47;;;;;;;3.44;100.00;104012.09;5044471;28;20071;-70
2023/02/06 06:05:46;;;;;;;31.27;5.15;;;;;;;3.48;100.00;104009.94;5052796;28;20104;-71
2023/02/06 06:08:12;;;;;;;23.17;2.65;;;;;;;3.51;100.00;104009.31;5049658;28;20107;-71
2023/02/06 06:10:37;;;;;;;36.00;4.80;;;;;;;3.54;100.00;104004.41;5052598;28;20032;-70
2023/02/06 06:13:02;;;;;;;30.77;4.50;;;;;;;3.54;100.00;104014.81;5053881;28;20039;-69
2023/02/06 06:15:28;;;;;;;20.15;3.38;;;;;;;3.53;100.00;104018.22;5053920;28;20039;-70
2023/02/06 06:17:53;;;;;;;22.88;4.40;;;;;;;3.50;100.00;104018.81;5054713;28;20086;-71
2023/02/06 06:20:18;;;;;;;32.13;4.35;;;;;;;3.48;100.00;104009.03;5051162;28;20503;-71
2023/02/06 06:22:44;;;;;;;20.13;3.92;;;;;;;3.47;100.00;104008.13;5043889;28;20492;-70
2023/02/06 06:25:09;;;;;;;18.30;3.70;;;;;;;3.47;100.00;104015.94;5053600;28;20043;-69
2023/02/06 06:27:34;;;;;;;23.45;3.58;;;;;;;3.50;100.00;104012.69;5050446;28;20396;-71
2023/02/06 06:30:00;;;;;;;23.83;3.75;;;;;;;3.48;100.00;104003.81;5050964;28;20029;-72
2023/02/06 06:32:25;;;;;;;28.65;3.30;;;;;;;3.47;100.00;103999.38;5062483;28;20024;-69
2023/02/06 06:34:51;;;;;;;23.80;3.97;;;;;;;3.44;100.00;103991.28;5054483;28;20031;-70
2023/02/06 06:37:16;;;;;;;17.88;3.20;;;;;;;3.45;100.00;103998.31;5053702;28;20033;-70
2023/02/06 06:39:41;;;;;;;10.43;2.85;;;;;;;3.43;100.00;103994.63;5053845;28;20465;-70
2023/02/06 06:42:07;;;;;;;22.50;3.45;;;;;;;3.44;100.00;104006.91;5052064;28;20047;-69
2023/02/06 06:44:32;;;;;;;19.35;2.85;;;;;;;3.47;100.00;104009.78;5053834;28;20501;-70
2023/02/06 06:46:58;;;;;;;28.33;4.35;;;;;;;3.50;100.00;104002.25;5034100;28;20057;-71
2023/02/06 06:49:23;;;;;;;24.45;5.38;;;;;;;3.50;100.00;104011.00;5053384;28;20056;-69
2023/02/06 06:51:48;;;;;;;14.27;3.22;;;;;;;3.48;100.00;104014.22;5054734;28;20051;-70
2023/02/06 06:54:14;;;;;;;31.13;4.38;;;;;;;3.47;100.00;104007.19;5052869;28;20029;-70
2023/02/06 06:56:40;;;;;;;26.10;3.72;;;;;;;3.44;100.00;104012.09;5054032;28;20025;-71
2023/02/06 06:59:05;;;;;;;22.50;3.17;;;;;;;3.43;100.00;104015.47;5050270;28;20031;-71
2023/02/06 07:01:31;;;;;;;30.33;3.47;;;;;;;3.38;100.00;104018.53;5052317;28;20025;-72
2023/02/06 07:03:58;;;;;;;29.35;3.47;;;;;;;3.40;100.00;104009.97;5053622;28;20419;-69
2023/02/06 07:06:24;;;;;;;28.48;4.35;;;;;;;3.35;100.00;104007.84;5034996;28;20043;-70
2023/02/06 07:08:49;;;;;;;24.73;3.53;;;;;;;3.33;100.00;104017.16;5060723;28;20040;-70
2023/02/06 07:11:14;;;;;;;19.30;2.97;;;;;;;3.27;100.00;104016.59;5072126;28;20152;-70
2023/02/06 07:13:41;;;;;;;16.38;3.67;;;;;;;3.26;100.00;104017.34;5053724;28;20036;-68
2023/02/06 07:16:07;;;;;;;25.50;3.67;;;;;;;3.24;100.00;104005.84;5051016;28;20021;-71
2023/02/06 07:18:32;;;;;;;21.88;3.33;;;;;;;3.26;100.00;104004.34;5052369;28;20033;-70
2023/02/06 07:20:58;;;;;;;29.40;3.92;;;;;;;3.22;100.00;103999.59;5052043;28;20025;-69
2023/02/06 07:23:23;;;;;;;21.98;3.22;;;;;;;3.24;100.00;103997.16;5054607;28;20027;-69
2023/02/06 07:25:48;;;;;;;22.98;4.50;;;;;;;3.23;100.00;103980.63;5052931;28;20020;-70
2023/02/06 07:28:14;;;;;;;24.83;3.75;;;;;;;3.23;100.00;103984.91;5050277;28;20162;-70
2023/02/06 07:30:40;;;;;;;19.10;3.13;;;;;;;3.24;100.00;103991.94;5051323;28;20036;-68
2023/02/06 07:33:05;;;;;;;32.13;4.40;;;;;;;3.27;100.00;103993.16;5054278;28;20032;-70
2023/02/06 07:35:31;;;;;;;29.58;4.03;;;;;;;3.32;100.00;103996.19;5049756;28;20024;-69
2023/02/06 07:37:56;;;;;;;27.95;4.15;;;;;;;3.33;100.00;103993.75;5051348;28;20040;-69
2023/02/06 07:40:23;;;;;;;24.80;4.25;;;;;;;3.36;100.00;103983.66;5055887;28;20025;-69
2023/02/06 07:42:48;;;;;;;29.63;4.20;;;;;;;3.44;100.00;103986.97;5052722;28;20028;-69
2023/02/06 07:45:14;;;;;;;23.10;4.57;;;;;;;3.42;100.00;103985.00;5065235;28;20032;-70
2023/02/06 07:47:39;;;;;;;21.27;4.75;;;;;;;3.43;100.00;103999.84;5060078;28;20033;-71
2023/02/06 07:50:05;;;;;;;21.63;4.10;;;;;;;3.48;100.00;103993.41;5056553;28;20475;-70
2023/02/06 07:52:30;;;;;;;31.02;4.30;;;;;;;3.51;100.00;103994.63;5053988;28;20476;-69
2023/02/06 07:54:56;;;;;;;19.42;3.42;;;;;;;3.55;100.00;103995.81;5052500;28;20013;-69
2023/02/06 07:57:21;;;;;;;27.58;4.78;;;;;;;3.55;100.00;103985.41;5052916;28;20025;-71
2023/02/06 07:59:46;;;;;;;20.77;4.70;;;;;;;3.57;100.00;103968.25;5053460;28;20228;-70
2023/02/06 08:02:12;;;;;;;19.52;3.67;;;;;;;3.63;100.00;103966.22;5053751;28;20021;-69
2023/02/06 08:04:37;;;;;;;20.33;3.97;;;;;;;3.66;100.00;103957.78;5051491;28;20041;-71
2023/02/06 08:07:04;;;;;;;21.38;4.18;;;;;;;3.67;100.00;103967.44;5053359;28;20021;-69
2023/02/06 08:09:30;;;;;;;31.70;6.40;;;;;;;3.73;100.00;103957.63;5053655;28;20445;-71
2023/02/06 08:11:56;;;;;;;25.80;5.20;;;;;;;3.77;100.00;103961.41;5053377;28;20055;-70
2023/02/06 08:14:22;;;;;;;31.70;5.30;;;;;;;3.80;100.00;103956.47;5052698;28;20461;-70
2023/02/06 08:16:49;;;;;;;27.30;5.13;;;;;;;3.82;100.00;103954.97;5050113;28;20473;-69
2023/02/06 08:19:14;;;;;;;29.83;5.07;;;;;;;3.86;100.00;103949.25;5053070;28;20029;-71
2023/02/06 08:21:40;;;;;;;32.22;4.80;;;;;;;3.90;100.00;103943.56;5072868;28;20028;-70
2023/02/06 08:24:06;;;;;;;29.10;5.43;;;;;;;3.92;100.00;103936.84;5073244;28;20024;-70
2023/02/06 08:26:31;;;;;;;27.38;4.72;;;;;;;3.95;100.00;103931.91;5073131;28;20487;-70
2023/02/06 08:29:00;;;;;;;22.23;4.22;;;;;;;3.99;100.00;103938.31;5054778;28;20127;-71
2023/02/06 08:31:29;;;;;;;26.17;6.10;;;;;;;4.01;100.00;103922.03;5052453;28;20171;-71
2023/02/06 08:33:55;;;;;;;31.45;5.20;;;;;;;4.10;100.00;103926.28;5053102;28;20020;-72
2023/02/06 08:36:22;;;;;;;38.13;6.00;;;;;;;4.14;100.00;103904.94;5052664;28;20540;-71
2023/02/06 08:38:48;;;;;;;22.58;5.18;;;;;;;4.17;100.00;103908.72;5070091;28;20103;-70
2023/02/06 08:41:19;;;;;;;30.88;5.43;;;;;;;4.20;100.00;103902.91;5070322;28;20114;-71
2023/02/06 08:43:46;;;;;;;21.27;4.47;;;;;;;4.23;100.00;103897.97;5050501;28;20094;-70
2023/02/06 08:46:11;;;;;;;38.65;6.38;;;;;;;4.30;100.00;103899.44;5049198;28;20404;-71
2023/02/06 08:48:37;;;;;;;34.53;5.88;;;;;;;4.34;100.00;103886.84;5052150;28;20119;-71
2023/02/06 08:51:08;;;;;;;27.98;5.78;;;;;;;4.41;100.00;103898.75;5050701;28;20461;-71
2023/02/06 08:53:34;;;;;;;27.02;7.38;;;;;;;4.44;100.00;103895.50;5061666;28;20028;-70
2023/02/06 08:56:02;;;;;;;30.45;5.32;;;;;;;4.46;100.00;103891.31;5056811;28;20028;-71
2023/02/06 08:58:28;;;;;;;19.55;4.40;;;;;;;4.47;100.00;103893.16;5052179;28;20029;-70
2023/02/06 09:00:53;;;;;;;35.03;5.32;;;;;;;4.47;100.00;103899.28;5048473;28;20082;-70
2023/02/06 09:03:20;;;;;;;23.75;5.43;;;;;;;4.48;100.00;103900.22;5052000;28;20036;-70
2023/02/06 09:05:46;;;;;;;30.17;5.35;;;;;;;4.50;100.00;103896.97;5051656;28;20067;-71
2023/02/06 09:08:11;;;;;;;24.85;5.53;;;;;;;4.54;100.00;103903.38;5051308;28;20053;-71
2023/02/06 09:10:36;;;;;;;26.05;4.60;;;;;;;4.54;100.00;103892.94;5048374;28;20103;-71
2023/02/06 09:13:02;;;;;;;23.83;5.18;;;;;;;4.58;100.00;103892.44;5052816;28;20029;-71
2023/02/06 09:15:27;;;;;;;31.23;5.47;;;;;;;4.67;100.00;103890.66;5051815;28;20028;-68
2023/02/06 09:17:52;;;;;;;27.77;4.68;;;;;;;4.84;100.00;103892.19;5051315;28;20039;-70
2023/02/06 09:20:18;;;;;;;34.40;5.22;;;;;;;5.10;100.00;103890.03;5052986;28;20377;-70
2023/02/06 09:22:43;;;;;;;31.05;4.53;;;;;;;5.22;100.00;103888.50;5051402;28;20785;-70
2023/02/06 09:25:09;;;;;;;36.65;5.30;;;;;;;5.32;100.00;103885.94;5052556;28;20028;-70
2023/02/06 09:27:35;;;;;;;32.17;5.00;;;;;;;5.50;100.00;103888.31;5054846;28;20052;-69
2023/02/06 09:30:01;;;;;;;34.55;4.60;;;;;;;5.72;100.00;103886.78;5053575;28;20083;-71
2023/02/06 09:32:26;;;;;;;32.05;4.63;;;;;;;6.04;100.00;103883.38;5055402;28;20500;-72
2023/02/06 09:34:51;;;;;;;33.13;5.22;;;;;;;6.30;100.00;103874.19;5054482;28;20116;-71
2023/02/06 09:37:17;;;;;;;18.17;4.30;;;;;;;6.60;100.00;103879.22;5053671;28;20167;-71
2023/02/06 09:39:42;;;;;;;27.75;4.40;;;;;;;6.91;100.00;103869.53;5052891;28;20024;-70
2023/02/06 09:42:35;;;;;;;37.17;4.78;;;;;;;7.29;100.00;103879.53;5056253;28;20135;-69
2023/02/06 09:45:23;;;;;;;31.38;3.85;;;;;;;7.59;100.00;103875.75;5052089;28;20061;-71
2023/02/06 09:47:59;;;;;;;26.08;3.58;;;;;;;7.86;100.00;103878.69;5053136;28;20090;-69
2023/02/06 09:50:45;;;;;;;27.50;4.57;;;;;;;8.17;100.00;103882.75;5056011;28;20031;-70
2023/02/06 09:53:28;;;;;;;30.13;4.30;;;;;;;8.63;100.00;103883.59;5018021;28;20102;-70
2023/02/06 09:56:09;;;;;;;23.95;3.35;;;;;;;8.89;100.00;103884.59;5071408;28;20039;-71
2023/02/06 09:59:04;;;;;;;28.67;3.47;;;;;;;9.02;100.00;103892.56;5075476;28;20462;-70
2023/02/06 10:01:59;;;;;;;24.77;3.63;;;;;;;8.59;100.00;103899.91;5060341;28;20025;-69
2023/02/06 10:04:53;;;;;;;16.38;3.45;;;;;;;8.99;100.00;103908.06;5061340;28;20043;-71
2023/02/06 10:07:24;;;;;;;23.50;3.75;;;;;;;9.05;100.00;103900.66;5062828;28;20076;-70
2023/02/06 10:10:05;;;;;;;25.65;3.33;;;;;;;8.80;100.00;103908.44;5054420;28;20043;-70
2023/02/06 10:12:58;;;;;;;18.23;3.00;;;;;;;8.49;100.00;103910.53;5055066;28;20024;-70
2023/02/06 10:15:32;;;;;;;21.42;3.67;;;;;;;8.25;100.00;103910.47;5056561;28;20039;-70
2023/02/06 10:18:06;;;;;;;25.58;3.35;;;;;;;8.32;100.00;103912.75;5052721;28;20473;-70
2023/02/06 10:20:54;;;;;;;21.45;2.75;;;;;;;7.73;100.00;103918.81;5057987;28;20105;-70
2023/02/06 10:23:42;;;;;;;30.70;3.33;;;;;;;7.91;100.00;103926.28;5057540;28;20025;-71
2023/02/06 10:26:15;;;;;;;19.77;2.67;;;;;;;8.36;100.00;103924.41;5054697;28;20124;-68
2023/02/06 10:28:42;;;;;;;24.40;3.38;;;;;;;9.11;100.00;103926.44;5059174;28;20029;-71
2023/02/06 10:31:24;;;;;;;26.70;3.95;;;;;;;8.99;100.00;103929.09;5055578;28;20094;-70
2023/02/06 10:34:36;;;;;;;27.10;3.58;;;;;;;8.63;100.00;103920.34;5056036;28;20361;-76
2023/02/06 10:37:07;;;;;;;22.60;3.33;;;;;;;8.16;100.00;103917.66;5035231;28;20498;-69
2023/02/06 10:39:48;;;;;;;27.75;3.95;;;;;;;8.03;100.00;103907.91;5070728;28;20376;-70
2023/02/06 10:42:17;;;;;;;27.13;4.72;;;;;;;8.28;100.00;103919.47;5053535;28;20029;-69
2023/02/06 10:44:54;;;;;;;22.80;3.35;;;;;;;8.83;100.00;103915.63;5057353;28;20032;-70
2023/02/06 10:47:35;;;;;;;13.90;2.40;;;;;;;9.42;100.00;103919.03;5054500;28;20025;-68
2023/02/06 10:50:21;;;;;;;24.00;3.92;;;;;;;9.55;100.00;103915.56;5067907;28;20107;-70
2023/02/06 10:52:47;;;;;;;22.27;3.58;;;;;;;10.08;100.00;103925.34;5042877;28;20039;-70
2023/02/06 10:55:24;;;;;;;21.73;3.20;;;;;;;10.43;100.00;103916.34;5064673;28;20028;-68
2023/02/06 10:58:02;;;;;;;19.45;2.40;;;;;;;10.25;100.00;103913.31;5054726;28;20035;-69
2023/02/06 11:00:29;;;;;;;24.67;2.95;;;;;;;10.21;100.00;103921.81;5043631;28;20074;-69
2023/02/06 11:02:57;;;;;;;19.13;2.90;;;;;;;10.54;100.00;103906.53;5052664;28;20155;-69
2023/02/06 11:05:29;;;;;;;12.20;1.92;;;;;;;10.50;93.62;103900.94;5045806;28;20040;-68
2023/02/06 11:08:14;;;;;;;20.33;2.92;;;;;;;10.43;95.65;103896.97;5052035;28;20398;-70
2023/02/06 11:10:40;;;;;;;17.05;2.38;;;;;;;10.82;93.63;103899.50;5064696;28;20040;-68
2023/02/06 11:13:12;;;;;;;21.13;2.40;;;;;;;11.46;89.22;103895.69;5065111;28;20037;-68
2023/02/06 11:15:45;;;;;;;20.17;2.90;;;;;;;10.69;98.70;103901.34;5054343;28;20048;-70
2023/02/06 11:18:16;;;;;;;25.52;2.97;;;;;;;10.40;98.33;103902.94;5049922;28;20040;-69
2023/02/06 11:20:43;;;;;;;27.25;2.25;;;;;;;10.46;96.13;103891.94;5047534;28;20044;-69
2023/02/06 11:23:22;;;;;;;17.55;2.85;;;;;;;10.44;91.19;103899.75;5047223;28;20028;-69
2023/02/06 11:26:05;;;;;;;38.85;3.50;;;;;;;10.22;93.58;103902.59;5046712;28;20043;-69